EVA829 RCKH-VMMC
Flight info
| Callsign | EVA829 |
|---|---|
| Flight time | N/A |
| Altitude | 28000 |
| Route | PARAS1B PARAS T7 WP521 G581 ELATO J101 SMT SMT4A |
| Aircraft | A333/H-SDE3GHIJ2J3J5M1RVWXYZ/LB2D1 |
Departure
| Time | 2026-04-23 12:26 |
|---|---|
| Airport | Kaohsiung International Airport (RCKH) |
Arrival
| Time | N/A |
|---|---|
| Airport | Macau International Airport (VMMC) |
| Time | Latitude | Longitude | Altitude | Speed | Heading |
|---|---|---|---|---|---|
| 2026-04-23 11:58 | 22.57326 | 120.33982 | 33 ft | 0 kts | 272° |
| 2026-04-23 12:12 | 22.57326 | 120.33984 | 42 ft | 1 kts | 272° |
| 2026-04-23 12:12 | 22.57325 | 120.34002 | 41 ft | 3 kts | 279° |
| 2026-04-23 12:13 | 22.57320 | 120.34022 | 40 ft | 3 kts | 293° |
| 2026-04-23 12:13 | 22.57310 | 120.34040 | 41 ft | 3 kts | 318° |
| 2026-04-23 12:13 | 22.57296 | 120.34050 | 39 ft | 2 kts | 356° |
| 2026-04-23 12:13 | 22.57291 | 120.34051 | 38 ft | 2 kts | 2° |
| 2026-04-23 12:16 | 22.57308 | 120.34051 | 41 ft | 7 kts | 2° |
| 2026-04-23 12:16 | 22.57392 | 120.34055 | 42 ft | 12 kts | 8° |
| 2026-04-23 12:17 | 22.57406 | 120.34074 | 42 ft | 4 kts | 81° |
| 2026-04-23 12:17 | 22.57429 | 120.34110 | 42 ft | 8 kts | 32° |
| 2026-04-23 12:17 | 22.57499 | 120.34123 | 42 ft | 13 kts | 4° |
| 2026-04-23 12:17 | 22.57566 | 120.34186 | 42 ft | 14 kts | 91° |
| 2026-04-23 12:18 | 22.57562 | 120.34291 | 42 ft | 14 kts | 92° |
| 2026-04-23 12:18 | 22.57557 | 120.34403 | 42 ft | 16 kts | 92° |
| 2026-04-23 12:18 | 22.57554 | 120.34524 | 42 ft | 17 kts | 91° |
| 2026-04-23 12:18 | 22.57551 | 120.34661 | 42 ft | 19 kts | 91° |
| 2026-04-23 12:19 | 22.57547 | 120.34811 | 42 ft | 21 kts | 91° |
| 2026-04-23 12:19 | 22.57543 | 120.34969 | 42 ft | 21 kts | 91° |
| 2026-04-23 12:19 | 22.57535 | 120.35126 | 42 ft | 21 kts | 90° |
| 2026-04-23 12:19 | 22.57532 | 120.35290 | 41 ft | 22 kts | 91° |
| 2026-04-23 12:20 | 22.57525 | 120.35457 | 41 ft | 23 kts | 92° |
| 2026-04-23 12:20 | 22.57519 | 120.35617 | 42 ft | 20 kts | 91° |
| 2026-04-23 12:20 | 22.57517 | 120.35773 | 42 ft | 21 kts | 91° |
| 2026-04-23 12:20 | 22.57513 | 120.35934 | 42 ft | 21 kts | 93° |
| 2026-04-23 12:21 | 22.57506 | 120.36097 | 42 ft | 22 kts | 92° |
| 2026-04-23 12:21 | 22.57499 | 120.36267 | 42 ft | 23 kts | 91° |
| 2026-04-23 12:21 | 22.57497 | 120.36351 | 42 ft | 9 kts | 91° |
| 2026-04-23 12:21 | 22.57496 | 120.36424 | 42 ft | 11 kts | 91° |
| 2026-04-23 12:22 | 22.57495 | 120.36506 | 42 ft | 3 kts | 83° |
| 2026-04-23 12:22 | 22.57509 | 120.36514 | 40 ft | 4 kts | 26° |
| 2026-04-23 12:22 | 22.57540 | 120.36523 | 42 ft | 4 kts | 6° |
| 2026-04-23 12:22 | 22.57548 | 120.36524 | 43 ft | 0 kts | 3° |
| 2026-04-23 12:24 | 22.57568 | 120.36525 | 43 ft | 5 kts | 3° |
| 2026-04-23 12:24 | 22.57616 | 120.36523 | 42 ft | 12 kts | 352° |
| 2026-04-23 12:24 | 22.57663 | 120.36434 | 43 ft | 17 kts | 275° |
| 2026-04-23 12:25 | 22.57667 | 120.36311 | 44 ft | 17 kts | 272° |
| 2026-04-23 12:25 | 22.57671 | 120.36177 | 43 ft | 23 kts | 271° |
| 2026-04-23 12:25 | 22.57681 | 120.35833 | 43 ft | 73 kts | 272° |
| 2026-04-23 12:25 | 22.57704 | 120.35075 | 41 ft | 127 kts | 271° |
| 2026-04-23 12:26 | 22.57740 | 120.33964 | 119 ft | 167 kts | 273° |
| 2026-04-23 12:26 | 22.57809 | 120.32624 | 401 ft | 191 kts | 274° |
| 2026-04-23 12:26 | 22.57895 | 120.31114 | 777 ft | 210 kts | 274° |
| 2026-04-23 12:26 | 22.57929 | 120.29483 | 1262 ft | 219 kts | 271° |
| 2026-04-23 12:27 | 22.57960 | 120.27825 | 1925 ft | 221 kts | 273° |
| 2026-04-23 12:27 | 22.58035 | 120.26168 | 2657 ft | 220 kts | 274° |
| 2026-04-23 12:27 | 22.57829 | 120.24534 | 3182 ft | 231 kts | 247° |
| 2026-04-23 12:27 | 22.56865 | 120.23113 | 3805 ft | 238 kts | 229° |
| 2026-04-23 12:28 | 22.55696 | 120.21840 | 4538 ft | 238 kts | 227° |
| 2026-04-23 12:28 | 22.54513 | 120.20574 | 5369 ft | 242 kts | 225° |
| 2026-04-23 12:28 | 22.53306 | 120.19259 | 5968 ft | 248 kts | 226° |
| 2026-04-23 12:28 | 22.52102 | 120.17926 | 6561 ft | 244 kts | 230° |
| 2026-04-23 12:29 | 22.50939 | 120.16622 | 7391 ft | 240 kts | 230° |
| 2026-04-23 12:29 | 22.49752 | 120.15277 | 7851 ft | 256 kts | 230° |
| 2026-04-23 12:29 | 22.48499 | 120.13851 | 8466 ft | 268 kts | 229° |
| 2026-04-23 12:29 | 22.47203 | 120.12381 | 9290 ft | 272 kts | 229° |
| 2026-04-23 12:30 | 22.45891 | 120.10894 | 10144 ft | 275 kts | 229° |
| 2026-04-23 12:30 | 22.44547 | 120.09368 | 10625 ft | 293 kts | 229° |
| 2026-04-23 12:30 | 22.43085 | 120.07705 | 10939 ft | 314 kts | 229° |
| 2026-04-23 12:30 | 22.41648 | 120.05870 | 11471 ft | 324 kts | 235° |
| 2026-04-23 12:31 | 22.40329 | 120.03912 | 12136 ft | 329 kts | 237° |
| 2026-04-23 12:31 | 22.39000 | 120.01877 | 12847 ft | 334 kts | 237° |
| 2026-04-23 12:31 | 22.37656 | 119.99812 | 13585 ft | 338 kts | 237° |
| 2026-04-23 12:31 | 22.36293 | 119.97721 | 14220 ft | 342 kts | 237° |
| 2026-04-23 12:32 | 22.34916 | 119.95611 | 14823 ft | 346 kts | 237° |
| 2026-04-23 12:32 | 22.33518 | 119.93472 | 15440 ft | 350 kts | 237° |
| 2026-04-23 12:32 | 22.32108 | 119.91317 | 16044 ft | 354 kts | 237° |
| 2026-04-23 12:32 | 22.30678 | 119.89132 | 16629 ft | 358 kts | 237° |
| 2026-04-23 12:33 | 22.29253 | 119.86955 | 17198 ft | 361 kts | 236° |